LYTVLDDU

Guest
Details From LYTV - Tivat
To LDDU - DUBROVNIK
Flight Number -
Tags generated
Created
Modified
Stats Distance 22 nm / 42 km
Max Altitude 100 ft / 30 m
Waypoints 3
Social Downloads 1
Likes 0
Share VATSIM

Download

Looking for another format? Having issues loading an existing format? Contact us
Advertisement - Login to hide

Notes

Basic altitude profile: - Ascent Rate: 2500ft/min - Ascent Speed: 250kts - Cruise Altitude: 35000ft - Cruise Speed: 420kts - Descent Rate: 1500ft/min - Descent Speed: 250kts Options: - Use NATs: yes - Use PACOTS: yes - Use low airways: yes - Use high airways: yes

Route

LYTV DBK LDDU

ID Type Via Altitude Latitude Longitude Leg Dist Tot Dist Heading (true) Name
O LYTV APT - 0 ft / 0 m 42.40466˚ 18.72329˚ - 0 nm - Tivat
DBK VOR - 100 ft / 30 m 42.55384˚ 18.27743˚ 21 nm 21 nm 295° / 294° DUBROVNIK VOR-DME
O LDDU APT - 0 ft / 0 m 42.56284˚ 18.26450˚ 0 nm 22 nm 313° / 313° DUBROVNIK

Altitude Profile

Advertisement - Login to hide

LYTV

Details ICAO LYTV (TIV)
Name Tivat
Region Serbia and Montenegro
Timezone Europe/Podgorica (UTC+1.0)
Stats Elevation 20 ft / 6 m (AMSL)
Location 42.404657° 18.723295°
Runways 1
Magnetic Variation 4.162° E

METAR

LYTV 121800Z 16012KT 110V210 9999 BKN020 16/14 Q1019 NOSIG

Decode

TAF

TAF LYTV 121700Z 1218/1318 16008KT 9999 SCT017 BKN027 OVC080 TX11/1312Z TN06/1304Z TEMPO 1222/1318 15015G27KT 3000 RA

Decode

Departure Runways

ID Width Length Bearing (true) Bearing (mag) Surface Threshold Offset Overrun Length
14 148 ft / 45 m 8,206 ft / 2,501 m 139.03° 134.87° Asphalt 300 ft / 91 m 0 ft / 0 m
32 148 ft / 45 m 8,206 ft / 2,501 m 319.04° 314.88° Asphalt 300 ft / 91 m 0 ft / 0 m

LDDU

Details ICAO LDDU (DBV)
Name DUBROVNIK
Region Croatia
Timezone Europe/Zagreb (UTC+1.0)
Stats Elevation 527 ft / 161 m (AMSL)
Location 42.562840° 18.264499°
Runways 1
Magnetic Variation 4.099° E

METAR

LDDU 121800Z 13016KT 9999 SCT008 BKN013 15/15 Q1019 NOSIG

Decode

TAF

TAF TAF LDDU 121725Z 1218/1318 12015KT 9999 SCT010 BKN015 TX15/1218Z TN12/1315Z TEMPO 1218/1318 BKN010 PROB40 TEMPO 1218/1302 12015G25KT BKN008 PROB40 TEMPO 1221/1312 12008KT 4000 -RA BECMG 1312/1314 19012KT 4000 RA BKN008 PROB40 TEMPO 1312/1317 3000 TSRA BKN010 FEW015CB BECMG 1316/1318 29009KT BKN020

Decode

Destination Runways

ID Width Length Bearing (true) Bearing (mag) Surface Threshold Offset Overrun Length
12 148 ft / 45 m 10,803 ft / 3,293 m 118.30° 114.20° Asphalt 488 ft / 149 m 100 ft / 30 m
30 148 ft / 45 m 10,803 ft / 3,293 m 298.33° 294.23° Asphalt 0 ft / 0 m 100 ft / 30 m

Approach Navaids

Runway Type Ident Frequency Range Bearing (true) Bearing (mag) Slope Elevation
12 Localiser IDU 110.10 MHz 25 nm / 46 km 118.21° 114.11° - 469 ft / 143 m (AMSL)
12 Glidescope IDU 110.10 MHz 25 nm / 46 km 118.21° 114.11° 3.00° 502 ft / 153 m (AMSL)